sensor_id;sensor_type;location;lat;lon;timestamp;temperature;humidity
21602;DHT22;10963;50.934;4.668;2023-04-06T00:00:14;7.20;99.90
21602;DHT22;10963;50.934;4.668;2023-04-06T00:02:41;7.10;99.90
21602;DHT22;10963;50.934;4.668;2023-04-06T00:05:07;7.10;99.90
21602;DHT22;10963;50.934;4.668;2023-04-06T00:07:36;7.10;99.90
21602;DHT22;10963;50.934;4.668;2023-04-06T00:10:05;7.10;99.90
21602;DHT22;10963;50.934;4.668;2023-04-06T00:12:33;7.10;99.90
21602;DHT22;10963;50.934;4.668;2023-04-06T00:14:59;7.20;99.90
21602;DHT22;10963;50.934;4.668;2023-04-06T00:17:24;7.30;99.90
21602;DHT22;10963;50.934;4.668;2023-04-06T00:19:50;7.20;99.90
21602;DHT22;10963;50.934;4.668;2023-04-06T00:22:16;7.10;99.90
21602;DHT22;10963;50.934;4.668;2023-04-06T00:24:44;7.10;99.90
21602;DHT22;10963;50.934;4.668;2023-04-06T00:27:13;7.00;99.90
21602;DHT22;10963;50.934;4.668;2023-04-06T00:29:41;7.00;99.90
21602;DHT22;10963;50.934;4.668;2023-04-06T00:32:09;6.90;99.90
21602;DHT22;10963;50.934;4.668;2023-04-06T00:34:35;6.90;99.90
21602;DHT22;10963;50.934;4.668;2023-04-06T00:37:03;6.80;99.90
21602;DHT22;10963;50.934;4.668;2023-04-06T00:39:31;7.00;99.90
21602;DHT22;10963;50.934;4.668;2023-04-06T00:41:57;7.10;99.90
21602;DHT22;10963;50.934;4.668;2023-04-06T00:44:23;7.10;99.90
21602;DHT22;10963;50.934;4.668;2023-04-06T00:46:51;7.00;99.90
21602;DHT22;10963;50.934;4.668;2023-04-06T00:49:22;7.00;99.90
21602;DHT22;10963;50.934;4.668;2023-04-06T00:51:47;6.90;99.90
21602;DHT22;10963;50.934;4.668;2023-04-06T00:54:13;6.90;99.90
21602;DHT22;10963;50.934;4.668;2023-04-06T00:56:39;6.90;99.90
21602;DHT22;10963;50.934;4.668;2023-04-06T00:59:07;6.80;99.90
21602;DHT22;10963;50.934;4.668;2023-04-06T01:01:32;6.90;99.90
21602;DHT22;10963;50.934;4.668;2023-04-06T01:04:00;6.90;99.90
21602;DHT22;10963;50.934;4.668;2023-04-06T01:06:28;7.10;99.90
21602;DHT22;10963;50.934;4.668;2023-04-06T01:08:56;7.00;99.90
21602;DHT22;10963;50.934;4.668;2023-04-06T01:11:22;7.10;99.90
21602;DHT22;10963;50.934;4.668;2023-04-06T01:13:50;7.20;99.90
21602;DHT22;10963;50.934;4.668;2023-04-06T01:16:18;7.20;99.90
21602;DHT22;10963;50.934;4.668;2023-04-06T01:18:44;7.20;99.90
21602;DHT22;10963;50.934;4.668;2023-04-06T01:21:10;7.30;99.90
21602;DHT22;10963;50.934;4.668;2023-04-06T01:23:43;7.40;99.90
21602;DHT22;10963;50.934;4.668;2023-04-06T01:26:09;7.40;99.90
21602;DHT22;10963;50.934;4.668;2023-04-06T01:28:35;7.40;99.90
21602;DHT22;10963;50.934;4.668;2023-04-06T01:31:03;7.50;99.90
21602;DHT22;10963;50.934;4.668;2023-04-06T01:33:29;7.50;99.90
21602;DHT22;10963;50.934;4.668;2023-04-06T01:35:54;7.40;99.90
21602;DHT22;10963;50.934;4.668;2023-04-06T01:38:23;7.40;99.90
21602;DHT22;10963;50.934;4.668;2023-04-06T01:40:48;7.40;99.90
21602;DHT22;10963;50.934;4.668;2023-04-06T01:43:16;7.40;99.90
21602;DHT22;10963;50.934;4.668;2023-04-06T01:45:42;7.40;99.90
21602;DHT22;10963;50.934;4.668;2023-04-06T01:48:08;7.40;99.90
21602;DHT22;10963;50.934;4.668;2023-04-06T01:50:36;7.50;99.90
21602;DHT22;10963;50.934;4.668;2023-04-06T01:53:01;7.60;99.90
21602;DHT22;10963;50.934;4.668;2023-04-06T01:55:32;7.60;99.90
21602;DHT22;10963;50.934;4.668;2023-04-06T01:58:00;7.50;99.90
21602;DHT22;10963;50.934;4.668;2023-04-06T02:00:25;7.50;99.90
21602;DHT22;10963;50.934;4.668;2023-04-06T02:02:51;7.60;99.90
21602;DHT22;10963;50.934;4.668;2023-04-06T02:05:17;7.60;99.90
21602;DHT22;10963;50.934;4.668;2023-04-06T02:07:42;7.60;99.90
21602;DHT22;10963;50.934;4.668;2023-04-06T02:10:12;7.50;99.90
21602;DHT22;10963;50.934;4.668;2023-04-06T02:12:38;7.50;99.90
21602;DHT22;10963;50.934;4.668;2023-04-06T02:15:04;7.50;99.90
21602;DHT22;10963;50.934;4.668;2023-04-06T02:17:30;7.60;99.90
21602;DHT22;10963;50.934;4.668;2023-04-06T02:19:56;7.60;99.90
21602;DHT22;10963;50.934;4.668;2023-04-06T02:22:21;7.60;99.90
21602;DHT22;10963;50.934;4.668;2023-04-06T02:24:47;7.60;99.90
21602;DHT22;10963;50.934;4.668;2023-04-06T02:27:14;7.60;99.90
21602;DHT22;10963;50.934;4.668;2023-04-06T02:29:40;7.60;99.90
21602;DHT22;10963;50.934;4.668;2023-04-06T02:32:08;7.60;99.90
21602;DHT22;10963;50.934;4.668;2023-04-06T02:34:34;7.50;99.90
21602;DHT22;10963;50.934;4.668;2023-04-06T02:37:02;7.50;99.90
21602;DHT22;10963;50.934;4.668;2023-04-06T02:39:27;7.50;99.90
21602;DHT22;10963;50.934;4.668;2023-04-06T02:41:53;7.40;99.90
21602;DHT22;10963;50.934;4.668;2023-04-06T02:44:19;7.50;99.90
21602;DHT22;10963;50.934;4.668;2023-04-06T02:46:45;7.40;99.90
21602;DHT22;10963;50.934;4.668;2023-04-06T02:49:11;7.40;99.90
21602;DHT22;10963;50.934;4.668;2023-04-06T02:51:37;7.30;99.90
21602;DHT22;10963;50.934;4.668;2023-04-06T02:54:02;7.30;99.90
21602;DHT22;10963;50.934;4.668;2023-04-06T02:56:28;7.30;99.90
21602;DHT22;10963;50.934;4.668;2023-04-06T02:58:56;7.30;99.90
21602;DHT22;10963;50.934;4.668;2023-04-06T03:01:22;7.30;99.90
21602;DHT22;10963;50.934;4.668;2023-04-06T03:03:48;7.50;99.90
21602;DHT22;10963;50.934;4.668;2023-04-06T03:06:14;7.40;99.90
21602;DHT22;10963;50.934;4.668;2023-04-06T03:08:39;7.30;99.90
21602;DHT22;10963;50.934;4.668;2023-04-06T03:11:05;7.40;99.90
21602;DHT22;10963;50.934;4.668;2023-04-06T03:13:31;7.40;99.90
21602;DHT22;10963;50.934;4.668;2023-04-06T03:15:57;7.40;99.90
21602;DHT22;10963;50.934;4.668;2023-04-06T03:18:25;7.30;99.90
21602;DHT22;10963;50.934;4.668;2023-04-06T03:20:51;7.40;99.90
21602;DHT22;10963;50.934;4.668;2023-04-06T03:23:19;7.50;99.90
21602;DHT22;10963;50.934;4.668;2023-04-06T03:25:46;7.40;99.90
21602;DHT22;10963;50.934;4.668;2023-04-06T03:28:12;7.40;99.90
21602;DHT22;10963;50.934;4.668;2023-04-06T03:30:40;7.20;99.90
21602;DHT22;10963;50.934;4.668;2023-04-06T03:33:05;7.20;99.90
21602;DHT22;10963;50.934;4.668;2023-04-06T03:35:31;7.20;99.90
21602;DHT22;10963;50.934;4.668;2023-04-06T03:37:59;7.20;99.90
21602;DHT22;10963;50.934;4.668;2023-04-06T03:40:25;7.20;99.90
21602;DHT22;10963;50.934;4.668;2023-04-06T03:42:50;7.20;99.90
21602;DHT22;10963;50.934;4.668;2023-04-06T03:45:16;7.20;99.90
21602;DHT22;10963;50.934;4.668;2023-04-06T03:47:44;7.00;99.90
21602;DHT22;10963;50.934;4.668;2023-04-06T03:50:10;7.00;99.90
21602;DHT22;10963;50.934;4.668;2023-04-06T03:52:38;7.00;99.90
21602;DHT22;10963;50.934;4.668;2023-04-06T03:55:05;7.10;99.90
21602;DHT22;10963;50.934;4.668;2023-04-06T03:57:31;7.10;99.90
21602;DHT22;10963;50.934;4.668;2023-04-06T03:59:59;7.20;99.90
21602;DHT22;10963;50.934;4.668;2023-04-06T04:02:25;7.20;99.90
21602;DHT22;10963;50.934;4.668;2023-04-06T04:04:53;7.20;99.90
21602;DHT22;10963;50.934;4.668;2023-04-06T04:07:21;7.30;99.90
21602;DHT22;10963;50.934;4.668;2023-04-06T04:09:49;7.30;99.90
21602;DHT22;10963;50.934;4.668;2023-04-06T04:12:14;7.30;99.90
21602;DHT22;10963;50.934;4.668;2023-04-06T04:14:42;7.30;99.90
21602;DHT22;10963;50.934;4.668;2023-04-06T04:17:09;7.40;99.90
21602;DHT22;10963;50.934;4.668;2023-04-06T04:19:35;7.40;99.90
21602;DHT22;10963;50.934;4.668;2023-04-06T04:22:03;7.40;99.90
21602;DHT22;10963;50.934;4.668;2023-04-06T04:24:34;7.40;99.90
21602;DHT22;10963;50.934;4.668;2023-04-06T04:27:02;7.40;99.90
21602;DHT22;10963;50.934;4.668;2023-04-06T04:29:30;7.40;99.90
21602;DHT22;10963;50.934;4.668;2023-04-06T04:31:58;7.40;99.90
21602;DHT22;10963;50.934;4.668;2023-04-06T04:34:24;7.40;99.90
21602;DHT22;10963;50.934;4.668;2023-04-06T04:36:51;7.40;99.90
21602;DHT22;10963;50.934;4.668;2023-04-06T04:39:16;7.60;99.90
21602;DHT22;10963;50.934;4.668;2023-04-06T04:41:42;7.60;99.90
21602;DHT22;10963;50.934;4.668;2023-04-06T04:44:10;7.50;99.90
21602;DHT22;10963;50.934;4.668;2023-04-06T04:46:36;7.50;99.90
21602;DHT22;10963;50.934;4.668;2023-04-06T04:49:02;7.50;99.90
21602;DHT22;10963;50.934;4.668;2023-04-06T04:51:28;7.50;99.90
21602;DHT22;10963;50.934;4.668;2023-04-06T04:53:53;7.50;99.90
21602;DHT22;10963;50.934;4.668;2023-04-06T04:56:19;7.50;99.90
21602;DHT22;10963;50.934;4.668;2023-04-06T04:58:45;7.50;99.90
21602;DHT22;10963;50.934;4.668;2023-04-06T05:01:13;7.50;99.90
21602;DHT22;10963;50.934;4.668;2023-04-06T05:03:42;7.50;99.90
21602;DHT22;10963;50.934;4.668;2023-04-06T05:06:10;7.60;99.90
21602;DHT22;10963;50.934;4.668;2023-04-06T05:08:36;7.70;99.90
21602;DHT22;10963;50.934;4.668;2023-04-06T05:11:01;7.70;99.90
21602;DHT22;10963;50.934;4.668;2023-04-06T05:13:30;7.60;99.90
21602;DHT22;10963;50.934;4.668;2023-04-06T05:16:01;7.60;99.90
21602;DHT22;10963;50.934;4.668;2023-04-06T05:18:26;7.60;99.90
21602;DHT22;10963;50.934;4.668;2023-04-06T05:20:52;7.50;99.90
21602;DHT22;10963;50.934;4.668;2023-04-06T05:23:21;7.50;99.90
21602;DHT22;10963;50.934;4.668;2023-04-06T05:25:47;7.60;99.90
21602;DHT22;10963;50.934;4.668;2023-04-06T05:28:12;7.60;99.90
21602;DHT22;10963;50.934;4.668;2023-04-06T05:30:40;7.50;99.90
21602;DHT22;10963;50.934;4.668;2023-04-06T05:33:06;7.50;99.90
21602;DHT22;10963;50.934;4.668;2023-04-06T05:35:34;7.50;99.90
21602;DHT22;10963;50.934;4.668;2023-04-06T05:38:00;7.40;99.90
21602;DHT22;10963;50.934;4.668;2023-04-06T05:40:26;7.50;99.90
21602;DHT22;10963;50.934;4.668;2023-04-06T05:42:53;7.50;99.90
21602;DHT22;10963;50.934;4.668;2023-04-06T05:45:19;7.50;99.90
21602;DHT22;10963;50.934;4.668;2023-04-06T05:47:49;7.60;99.90
21602;DHT22;10963;50.934;4.668;2023-04-06T05:50:15;7.60;99.90
21602;DHT22;10963;50.934;4.668;2023-04-06T05:52:41;7.60;99.90
21602;DHT22;10963;50.934;4.668;2023-04-06T05:55:09;7.70;99.90
21602;DHT22;10963;50.934;4.668;2023-04-06T05:57:37;7.80;99.90
21602;DHT22;10963;50.934;4.668;2023-04-06T06:00:04;7.80;99.90
21602;DHT22;10963;50.934;4.668;2023-04-06T06:02:32;7.80;99.90
21602;DHT22;10963;50.934;4.668;2023-04-06T06:04:57;8.00;99.90
21602;DHT22;10963;50.934;4.668;2023-04-06T06:07:23;8.20;99.90
21602;DHT22;10963;50.934;4.668;2023-04-06T06:09:49;8.20;99.90
21602;DHT22;10963;50.934;4.668;2023-04-06T06:12:15;8.30;99.90
21602;DHT22;10963;50.934;4.668;2023-04-06T06:14:44;8.30;99.90
21602;DHT22;10963;50.934;4.668;2023-04-06T06:17:12;8.50;99.90
21602;DHT22;10963;50.934;4.668;2023-04-06T06:19:37;8.60;99.90
21602;DHT22;10963;50.934;4.668;2023-04-06T06:22:03;8.70;99.90
21602;DHT22;10963;50.934;4.668;2023-04-06T06:24:30;8.90;99.90
21602;DHT22;10963;50.934;4.668;2023-04-06T06:26:59;9.10;99.90
21602;DHT22;10963;50.934;4.668;2023-04-06T06:29:25;9.10;99.90
21602;DHT22;10963;50.934;4.668;2023-04-06T06:31:53;9.30;99.90
21602;DHT22;10963;50.934;4.668;2023-04-06T06:34:19;9.50;99.90
21602;DHT22;10963;50.934;4.668;2023-04-06T06:36:45;9.50;99.90
21602;DHT22;10963;50.934;4.668;2023-04-06T06:39:11;9.60;99.90
21602;DHT22;10963;50.934;4.668;2023-04-06T06:41:39;9.50;99.90
21602;DHT22;10963;50.934;4.668;2023-04-06T06:44:05;9.50;99.90
21602;DHT22;10963;50.934;4.668;2023-04-06T06:46:31;9.60;99.90
21602;DHT22;10963;50.934;4.668;2023-04-06T06:48:59;9.40;99.90
21602;DHT22;10963;50.934;4.668;2023-04-06T06:51:25;9.50;99.90
21602;DHT22;10963;50.934;4.668;2023-04-06T06:53:51;9.50;99.90
21602;DHT22;10963;50.934;4.668;2023-04-06T06:56:17;9.40;99.90
21602;DHT22;10963;50.934;4.668;2023-04-06T06:58:43;9.20;99.90
21602;DHT22;10963;50.934;4.668;2023-04-06T07:01:08;9.20;99.90
21602;DHT22;10963;50.934;4.668;2023-04-06T07:03:34;9.30;99.90
21602;DHT22;10963;50.934;4.668;2023-04-06T07:06:00;9.50;99.90
21602;DHT22;10963;50.934;4.668;2023-04-06T07:08:25;9.50;99.90
21602;DHT22;10963;50.934;4.668;2023-04-06T07:10:52;9.50;99.90
21602;DHT22;10963;50.934;4.668;2023-04-06T07:13:20;9.60;99.90
21602;DHT22;10963;50.934;4.668;2023-04-06T07:15:51;9.50;99.90
21602;DHT22;10963;50.934;4.668;2023-04-06T07:18:18;9.60;99.90
21602;DHT22;10963;50.934;4.668;2023-04-06T07:20:45;9.60;99.90
21602;DHT22;10963;50.934;4.668;2023-04-06T07:23:13;9.50;99.90
21602;DHT22;10963;50.934;4.668;2023-04-06T07:25:39;9.30;99.90
21602;DHT22;10963;50.934;4.668;2023-04-06T07:28:05;9.30;99.90
21602;DHT22;10963;50.934;4.668;2023-04-06T07:30:31;9.40;99.90
21602;DHT22;10963;50.934;4.668;2023-04-06T07:32:59;9.30;99.90
21602;DHT22;10963;50.934;4.668;2023-04-06T07:35:25;9.30;99.90
21602;DHT22;10963;50.934;4.668;2023-04-06T07:37:54;9.20;99.90
21602;DHT22;10963;50.934;4.668;2023-04-06T07:40:22;9.30;99.90
21602;DHT22;10963;50.934;4.668;2023-04-06T07:42:48;9.40;99.90
21602;DHT22;10963;50.934;4.668;2023-04-06T07:45:17;9.40;99.90
21602;DHT22;10963;50.934;4.668;2023-04-06T07:47:45;9.40;99.90
21602;DHT22;10963;50.934;4.668;2023-04-06T07:50:11;9.40;99.90
21602;DHT22;10963;50.934;4.668;2023-04-06T07:52:38;9.40;99.90
21602;DHT22;10963;50.934;4.668;2023-04-06T07:55:07;9.30;99.90
21602;DHT22;10963;50.934;4.668;2023-04-06T07:57:32;9.40;99.90
21602;DHT22;10963;50.934;4.668;2023-04-06T07:59:58;9.50;99.90
21602;DHT22;10963;50.934;4.668;2023-04-06T08:02:24;9.30;99.90
21602;DHT22;10963;50.934;4.668;2023-04-06T08:04:50;9.20;99.90
21602;DHT22;10963;50.934;4.668;2023-04-06T08:07:15;9.10;99.90
21602;DHT22;10963;50.934;4.668;2023-04-06T08:09:41;9.20;99.90
21602;DHT22;10963;50.934;4.668;2023-04-06T08:12:09;9.30;99.90
21602;DHT22;10963;50.934;4.668;2023-04-06T08:14:35;9.30;99.90
21602;DHT22;10963;50.934;4.668;2023-04-06T08:17:03;9.20;99.90
21602;DHT22;10963;50.934;4.668;2023-04-06T08:19:28;9.30;99.90
21602;DHT22;10963;50.934;4.668;2023-04-06T08:21:54;9.40;99.90
21602;DHT22;10963;50.934;4.668;2023-04-06T08:24:25;9.20;99.90
21602;DHT22;10963;50.934;4.668;2023-04-06T08:26:51;9.10;99.90
21602;DHT22;10963;50.934;4.668;2023-04-06T08:29:17;9.10;99.90
21602;DHT22;10963;50.934;4.668;2023-04-06T08:31:45;9.20;99.90
21602;DHT22;10963;50.934;4.668;2023-04-06T08:34:13;9.30;99.90
21602;DHT22;10963;50.934;4.668;2023-04-06T08:36:39;9.10;99.90
21602;DHT22;10963;50.934;4.668;2023-04-06T08:39:05;9.10;99.90
21602;DHT22;10963;50.934;4.668;2023-04-06T08:41:30;9.10;99.90
21602;DHT22;10963;50.934;4.668;2023-04-06T08:44:01;9.00;99.90
21602;DHT22;10963;50.934;4.668;2023-04-06T08:46:29;9.00;99.90
21602;DHT22;10963;50.934;4.668;2023-04-06T08:49:01;9.10;99.90
21602;DHT22;10963;50.934;4.668;2023-04-06T08:51:28;9.20;99.90
21602;DHT22;10963;50.934;4.668;2023-04-06T08:53:57;9.40;99.90
21602;DHT22;10963;50.934;4.668;2023-04-06T08:56:24;9.50;99.90
21602;DHT22;10963;50.934;4.668;2023-04-06T08:58:54;9.40;99.90
21602;DHT22;10963;50.934;4.668;2023-04-06T09:01:25;9.50;99.90
21602;DHT22;10963;50.934;4.668;2023-04-06T09:03:56;9.60;99.90
21602;DHT22;10963;50.934;4.668;2023-04-06T09:06:22;9.60;99.90
21602;DHT22;10963;50.934;4.668;2023-04-06T09:08:50;9.60;99.90
21602;DHT22;10963;50.934;4.668;2023-04-06T09:11:15;9.50;99.90
21602;DHT22;10963;50.934;4.668;2023-04-06T09:13:55;9.40;99.90
21602;DHT22;10963;50.934;4.668;2023-04-06T09:16:24;9.50;99.90
21602;DHT22;10963;50.934;4.668;2023-04-06T09:18:53;9.50;99.90
21602;DHT22;10963;50.934;4.668;2023-04-06T09:21:19;9.60;99.90
21602;DHT22;10963;50.934;4.668;2023-04-06T09:23:45;9.50;99.90
21602;DHT22;10963;50.934;4.668;2023-04-06T09:26:13;9.40;99.90
21602;DHT22;10963;50.934;4.668;2023-04-06T09:31:08;9.40;99.90
21602;DHT22;10963;50.934;4.668;2023-04-06T09:33:45;9.50;99.90
21602;DHT22;10963;50.934;4.668;2023-04-06T09:36:11;9.50;99.90
21602;DHT22;10963;50.934;4.668;2023-04-06T09:41:24;9.70;99.90
21602;DHT22;10963;50.934;4.668;2023-04-06T09:44:01;9.70;99.90
21602;DHT22;10963;50.934;4.668;2023-04-06T09:46:27;9.50;99.90
21602;DHT22;10963;50.934;4.668;2023-04-06T09:48:59;9.60;99.90
21602;DHT22;10963;50.934;4.668;2023-04-06T09:51:26;9.70;99.90
21602;DHT22;10963;50.934;4.668;2023-04-06T09:53:57;9.80;99.90
21602;DHT22;10963;50.934;4.668;2023-04-06T09:56:30;9.80;99.90
21602;DHT22;10963;50.934;4.668;2023-04-06T09:59:02;9.80;99.90
21602;DHT22;10963;50.934;4.668;2023-04-06T10:01:30;9.70;99.90
21602;DHT22;10963;50.934;4.668;2023-04-06T10:06:40;9.50;99.90
21602;DHT22;10963;50.934;4.668;2023-04-06T10:09:08;9.50;99.90
21602;DHT22;10963;50.934;4.668;2023-04-06T10:11:35;9.50;99.90
21602;DHT22;10963;50.934;4.668;2023-04-06T10:14:01;9.60;99.90
21602;DHT22;10963;50.934;4.668;2023-04-06T10:16:26;9.70;99.90
21602;DHT22;10963;50.934;4.668;2023-04-06T10:19:02;9.80;99.90
21602;DHT22;10963;50.934;4.668;2023-04-06T10:21:31;9.70;99.90
21602;DHT22;10963;50.934;4.668;2023-04-06T10:24:02;9.80;99.90
21602;DHT22;10963;50.934;4.668;2023-04-06T10:26:32;9.80;99.90
21602;DHT22;10963;50.934;4.668;2023-04-06T10:29:03;9.80;99.90
21602;DHT22;10963;50.934;4.668;2023-04-06T10:31:32;9.60;99.90
21602;DHT22;10963;50.934;4.668;2023-04-06T10:34:02;9.50;99.90
21602;DHT22;10963;50.934;4.668;2023-04-06T10:36:33;9.40;99.90
21602;DHT22;10963;50.934;4.668;2023-04-06T10:39:04;9.30;99.90
21602;DHT22;10963;50.934;4.668;2023-04-06T10:43:59;9.50;99.90
21602;DHT22;10963;50.934;4.668;2023-04-06T10:46:29;9.50;99.90
21602;DHT22;10963;50.934;4.668;2023-04-06T10:48:56;9.50;99.90
21602;DHT22;10963;50.934;4.668;2023-04-06T10:51:29;9.40;99.90
21602;DHT22;10963;50.934;4.668;2023-04-06T10:53:55;9.40;99.90
21602;DHT22;10963;50.934;4.668;2023-04-06T10:56:24;9.30;99.90
21602;DHT22;10963;50.934;4.668;2023-04-06T10:58:53;9.40;99.90
21602;DHT22;10963;50.934;4.668;2023-04-06T11:01:23;9.30;99.90
21602;DHT22;10963;50.934;4.668;2023-04-06T11:03:54;9.50;99.90
21602;DHT22;10963;50.934;4.668;2023-04-06T11:06:28;9.60;99.90
21602;DHT22;10963;50.934;4.668;2023-04-06T11:08:57;9.70;99.90
21602;DHT22;10963;50.934;4.668;2023-04-06T11:11:25;9.60;99.90
21602;DHT22;10963;50.934;4.668;2023-04-06T11:13:59;9.70;99.90
21602;DHT22;10963;50.934;4.668;2023-04-06T11:16:29;9.90;99.90
21602;DHT22;10963;50.934;4.668;2023-04-06T11:19:00;9.90;99.90
21602;DHT22;10963;50.934;4.668;2023-04-06T11:21:42;9.90;99.90
21602;DHT22;10963;50.934;4.668;2023-04-06T11:26:44;9.90;99.90
21602;DHT22;10963;50.934;4.668;2023-04-06T11:29:17;10.00;99.90
21602;DHT22;10963;50.934;4.668;2023-04-06T11:31:50;9.90;99.90
21602;DHT22;10963;50.934;4.668;2023-04-06T11:34:20;10.00;99.90
21602;DHT22;10963;50.934;4.668;2023-04-06T11:36:48;9.90;99.90
21602;DHT22;10963;50.934;4.668;2023-04-06T11:39:18;10.00;99.90
21602;DHT22;10963;50.934;4.668;2023-04-06T11:41:48;9.90;99.90
21602;DHT22;10963;50.934;4.668;2023-04-06T11:44:15;9.90;99.90
21602;DHT22;10963;50.934;4.668;2023-04-06T11:46:43;10.00;99.90
21602;DHT22;10963;50.934;4.668;2023-04-06T11:49:17;10.10;99.90
21602;DHT22;10963;50.934;4.668;2023-04-06T11:51:42;10.20;99.90
21602;DHT22;10963;50.934;4.668;2023-04-06T11:54:08;10.20;99.90
21602;DHT22;10963;50.934;4.668;2023-04-06T11:56:34;10.20;99.90
21602;DHT22;10963;50.934;4.668;2023-04-06T11:59:02;10.10;99.90
21602;DHT22;10963;50.934;4.668;2023-04-06T12:01:29;10.40;99.90
21602;DHT22;10963;50.934;4.668;2023-04-06T12:03:54;10.30;99.90
21602;DHT22;10963;50.934;4.668;2023-04-06T12:06:20;10.30;99.90
21602;DHT22;10963;50.934;4.668;2023-04-06T12:08:46;10.20;99.90
21602;DHT22;10963;50.934;4.668;2023-04-06T12:11:12;10.20;99.90
21602;DHT22;10963;50.934;4.668;2023-04-06T12:13:38;10.10;99.90
21602;DHT22;10963;50.934;4.668;2023-04-06T12:16:06;10.30;99.90
21602;DHT22;10963;50.934;4.668;2023-04-06T12:18:32;10.20;99.90
21602;DHT22;10963;50.934;4.668;2023-04-06T12:20:57;10.30;99.90
21602;DHT22;10963;50.934;4.668;2023-04-06T12:23:23;10.50;99.90
21602;DHT22;10963;50.934;4.668;2023-04-06T12:25:49;10.40;99.90
21602;DHT22;10963;50.934;4.668;2023-04-06T12:28:15;10.40;99.90
21602;DHT22;10963;50.934;4.668;2023-04-06T12:30:43;10.40;99.90
21602;DHT22;10963;50.934;4.668;2023-04-06T12:33:09;10.40;99.90
21602;DHT22;10963;50.934;4.668;2023-04-06T12:35:34;10.50;99.90
21602;DHT22;10963;50.934;4.668;2023-04-06T12:38:00;10.50;99.90
21602;DHT22;10963;50.934;4.668;2023-04-06T12:40:29;10.40;99.90
21602;DHT22;10963;50.934;4.668;2023-04-06T12:42:55;10.50;99.90
21602;DHT22;10963;50.934;4.668;2023-04-06T12:45:20;10.50;99.90
21602;DHT22;10963;50.934;4.668;2023-04-06T12:47:46;10.50;99.90
21602;DHT22;10963;50.934;4.668;2023-04-06T12:50:12;10.60;99.90
21602;DHT22;10963;50.934;4.668;2023-04-06T12:52:37;10.70;99.90
21602;DHT22;10963;50.934;4.668;2023-04-06T12:55:08;10.90;99.90
21602;DHT22;10963;50.934;4.668;2023-04-06T12:57:34;10.80;99.90
21602;DHT22;10963;50.934;4.668;2023-04-06T13:00:00;10.80;99.90
21602;DHT22;10963;50.934;4.668;2023-04-06T13:02:25;10.70;99.90
21602;DHT22;10963;50.934;4.668;2023-04-06T13:04:52;10.60;99.90
21602;DHT22;10963;50.934;4.668;2023-04-06T13:07:18;10.50;99.90
21602;DHT22;10963;50.934;4.668;2023-04-06T13:09:43;10.60;99.90
21602;DHT22;10963;50.934;4.668;2023-04-06T13:12:10;10.70;99.90
21602;DHT22;10963;50.934;4.668;2023-04-06T13:14:35;10.80;99.90
21602;DHT22;10963;50.934;4.668;2023-04-06T13:17:04;10.80;99.90
21602;DHT22;10963;50.934;4.668;2023-04-06T13:19:32;10.80;99.90
21602;DHT22;10963;50.934;4.668;2023-04-06T13:21:58;10.80;99.90
21602;DHT22;10963;50.934;4.668;2023-04-06T13:24:24;10.70;99.90
21602;DHT22;10963;50.934;4.668;2023-04-06T13:26:49;10.60;99.90
21602;DHT22;10963;50.934;4.668;2023-04-06T13:29:18;10.40;99.90
21602;DHT22;10963;50.934;4.668;2023-04-06T13:31:43;10.20;99.90
21602;DHT22;10963;50.934;4.668;2023-04-06T13:34:09;10.20;99.90
21602;DHT22;10963;50.934;4.668;2023-04-06T13:36:39;10.20;99.90
21602;DHT22;10963;50.934;4.668;2023-04-06T13:39:07;10.30;99.90
21602;DHT22;10963;50.934;4.668;2023-04-06T13:41:32;10.20;99.90
21602;DHT22;10963;50.934;4.668;2023-04-06T13:44:00;10.10;99.90
21602;DHT22;10963;50.934;4.668;2023-04-06T13:46:26;10.10;99.90
21602;DHT22;10963;50.934;4.668;2023-04-06T13:48:56;10.10;99.90
21602;DHT22;10963;50.934;4.668;2023-04-06T13:51:22;10.20;99.90
21602;DHT22;10963;50.934;4.668;2023-04-06T13:53:50;10.30;99.90
21602;DHT22;10963;50.934;4.668;2023-04-06T13:56:18;10.30;99.90
21602;DHT22;10963;50.934;4.668;2023-04-06T13:58:45;10.40;99.90
21602;DHT22;10963;50.934;4.668;2023-04-06T14:01:11;10.40;99.90
21602;DHT22;10963;50.934;4.668;2023-04-06T14:03:37;10.40;99.90
21602;DHT22;10963;50.934;4.668;2023-04-06T14:06:12;10.60;99.90
21602;DHT22;10963;50.934;4.668;2023-04-06T14:08:38;10.50;99.90
21602;DHT22;10963;50.934;4.668;2023-04-06T14:11:04;10.60;99.90
21602;DHT22;10963;50.934;4.668;2023-04-06T14:13:33;10.60;99.90
21602;DHT22;10963;50.934;4.668;2023-04-06T14:16:03;10.70;99.90
21602;DHT22;10963;50.934;4.668;2023-04-06T14:18:32;10.70;99.90
21602;DHT22;10963;50.934;4.668;2023-04-06T14:21:00;10.70;99.90
21602;DHT22;10963;50.934;4.668;2023-04-06T14:23:28;10.70;99.90
21602;DHT22;10963;50.934;4.668;2023-04-06T14:26:03;10.60;99.90
21602;DHT22;10963;50.934;4.668;2023-04-06T14:28:33;10.50;99.90
21602;DHT22;10963;50.934;4.668;2023-04-06T14:30:59;10.50;99.90
21602;DHT22;10963;50.934;4.668;2023-04-06T14:33:29;10.60;99.90
21602;DHT22;10963;50.934;4.668;2023-04-06T14:35:55;10.70;99.90
21602;DHT22;10963;50.934;4.668;2023-04-06T14:38:21;10.70;99.90
21602;DHT22;10963;50.934;4.668;2023-04-06T14:40:48;10.70;99.90
21602;DHT22;10963;50.934;4.668;2023-04-06T14:43:14;10.80;99.90
21602;DHT22;10963;50.934;4.668;2023-04-06T14:45:40;10.60;99.90
21602;DHT22;10963;50.934;4.668;2023-04-06T14:48:08;10.60;99.90
21602;DHT22;10963;50.934;4.668;2023-04-06T14:50:38;10.60;99.90
21602;DHT22;10963;50.934;4.668;2023-04-06T14:53:03;10.60;99.90
21602;DHT22;10963;50.934;4.668;2023-04-06T14:55:30;10.70;99.90
21602;DHT22;10963;50.934;4.668;2023-04-06T14:57:56;10.60;99.90
21602;DHT22;10963;50.934;4.668;2023-04-06T15:00:24;10.50;99.90
21602;DHT22;10963;50.934;4.668;2023-04-06T15:02:50;10.30;99.90
21602;DHT22;10963;50.934;4.668;2023-04-06T15:05:15;10.30;99.90
21602;DHT22;10963;50.934;4.668;2023-04-06T15:07:41;10.40;99.90
21602;DHT22;10963;50.934;4.668;2023-04-06T15:10:08;10.40;99.90
21602;DHT22;10963;50.934;4.668;2023-04-06T15:12:35;10.50;99.90
21602;DHT22;10963;50.934;4.668;2023-04-06T15:15:01;10.70;99.90
21602;DHT22;10963;50.934;4.668;2023-04-06T15:17:32;10.90;99.90
21602;DHT22;10963;50.934;4.668;2023-04-06T15:20:00;10.90;99.90
21602;DHT22;10963;50.934;4.668;2023-04-06T15:22:26;10.70;99.90
21602;DHT22;10963;50.934;4.668;2023-04-06T15:24:52;10.60;99.90
21602;DHT22;10963;50.934;4.668;2023-04-06T15:27:20;10.60;99.90
21602;DHT22;10963;50.934;4.668;2023-04-06T15:29:48;10.60;99.90
21602;DHT22;10963;50.934;4.668;2023-04-06T15:32:13;10.60;99.90
21602;DHT22;10963;50.934;4.668;2023-04-06T15:34:42;10.70;99.90
21602;DHT22;10963;50.934;4.668;2023-04-06T15:37:10;10.70;99.90
21602;DHT22;10963;50.934;4.668;2023-04-06T15:39:38;10.80;99.90
21602;DHT22;10963;50.934;4.668;2023-04-06T15:42:03;10.70;99.90
21602;DHT22;10963;50.934;4.668;2023-04-06T15:44:29;10.80;99.90
21602;DHT22;10963;50.934;4.668;2023-04-06T15:46:55;10.90;99.90
21602;DHT22;10963;50.934;4.668;2023-04-06T15:49:28;11.00;99.90
21602;DHT22;10963;50.934;4.668;2023-04-06T15:51:53;11.20;99.90
21602;DHT22;10963;50.934;4.668;2023-04-06T15:54:19;11.10;99.90